UUEE/SVO METAR and TAF weather

Enter ICAO airport designator
Station Type Date Time Source
UUEE METAR 2020/01/23 06:00 UTC NOAA

UUEE 230600Z 32006MPS 290V350 CAVOK M05/M11 Q1003 RESN R24L/590345 R24R/550345 NOSIG


Station Type Date Time Source
UUEE Decoded METAR 2020/01/23 06:00 UTC NOAA

Moscow / Sheremet'Ye , Russia (UUEE) 55-59N 037-30E
Jan 23, 2020 - 01:00 AM EST / 2020.01.23 0600 UTC
Wind: from the NW (320 degrees) at 13 MPH (12 KT) (direction variable):0
Visibility: greater than 7 mile(s):0
Temperature: 23 F (-5 C)
Windchill: 10 F (-12 C):1
Dew Point: 12 F (-11 C)
Relative Humidity: 62%
Pressure (altimeter): 29.62 in. Hg (1003 hPa)
ob: UUEE 230600Z 32006MPS 290V350 CAVOK M05/M11 Q1003 RESN R24L/590345 R24R/550345 NOSIG
cycle: 6

Station Type Date Time Source
UUEE TAF 2020/01/23 06:24 UTC NOAA

TAF TAF UUEE 230450Z 2306/2406 31009G14MPS 6000 BKN015 TXM04/2306Z TNM07/2401Z
TEMPO 2306/2308 0500 +SHSN FEW004 BKN011CB
TEMPO 2308/2315 1200 SN BLSN FEW005 BKN015
BECMG 2320/2324 24007MPS

Example: see airport list